sensor_id;sensor_type;location;lat;lon;timestamp;P1;durP1;ratioP1;P2;durP2;ratioP2
43823;SDS011;29470;53.550;9.926;2022-08-06T00:02:22;4.43;;;1.55;;
43823;SDS011;29470;53.550;9.926;2022-08-06T00:07:31;2.88;;;1.08;;
43823;SDS011;29470;53.550;9.926;2022-08-06T00:12:48;4.28;;;1.20;;
43823;SDS011;29470;53.550;9.926;2022-08-06T00:17:52;4.10;;;1.40;;
43823;SDS011;29470;53.550;9.926;2022-08-06T00:22:55;3.42;;;1.50;;
43823;SDS011;29470;53.550;9.926;2022-08-06T00:27:58;2.00;;;0.98;;
43823;SDS011;29470;53.550;9.926;2022-08-06T00:33:03;3.53;;;1.52;;
43823;SDS011;29470;53.550;9.926;2022-08-06T00:38:06;3.10;;;1.30;;
43823;SDS011;29470;53.550;9.926;2022-08-06T00:43:11;5.53;;;1.75;;
43823;SDS011;29470;53.550;9.926;2022-08-06T00:48:16;3.83;;;1.52;;
43823;SDS011;29470;53.550;9.926;2022-08-06T00:53:39;4.53;;;1.98;;
43823;SDS011;29470;53.550;9.926;2022-08-06T00:58:44;4.28;;;1.40;;
43823;SDS011;29470;53.550;9.926;2022-08-06T01:03:48;3.83;;;1.40;;
43823;SDS011;29470;53.550;9.926;2022-08-06T01:08:52;2.30;;;1.42;;
43823;SDS011;29470;53.550;9.926;2022-08-06T01:13:55;2.38;;;1.33;;
43823;SDS011;29470;53.550;9.926;2022-08-06T01:19:10;5.72;;;1.52;;
43823;SDS011;29470;53.550;9.926;2022-08-06T01:24:54;3.85;;;1.50;;
43823;SDS011;29470;53.550;9.926;2022-08-06T01:30:07;4.43;;;1.60;;
43823;SDS011;29470;53.550;9.926;2022-08-06T01:35:16;4.47;;;1.50;;
43823;SDS011;29470;53.550;9.926;2022-08-06T01:40:43;3.60;;;1.50;;
43823;SDS011;29470;53.550;9.926;2022-08-06T01:45:53;3.63;;;1.50;;
43823;SDS011;29470;53.550;9.926;2022-08-06T01:50:58;2.95;;;1.30;;
43823;SDS011;29470;53.550;9.926;2022-08-06T01:56:05;6.05;;;1.45;;
43823;SDS011;29470;53.550;9.926;2022-08-06T02:01:12;3.58;;;1.98;;
43823;SDS011;29470;53.550;9.926;2022-08-06T02:06:21;1.70;;;1.50;;
43823;SDS011;29470;53.550;9.926;2022-08-06T02:11:30;2.83;;;1.65;;
43823;SDS011;29470;53.550;9.926;2022-08-06T02:16:58;4.35;;;1.73;;
43823;SDS011;29470;53.550;9.926;2022-08-06T02:22:14;3.77;;;1.60;;
43823;SDS011;29470;53.550;9.926;2022-08-06T02:27:27;2.92;;;1.52;;
43823;SDS011;29470;53.550;9.926;2022-08-06T02:32:45;2.97;;;1.67;;
43823;SDS011;29470;53.550;9.926;2022-08-06T02:37:50;3.17;;;1.80;;
43823;SDS011;29470;53.550;9.926;2022-08-06T02:43:04;4.72;;;2.30;;
43823;SDS011;29470;53.550;9.926;2022-08-06T02:48:12;3.80;;;2.07;;
43823;SDS011;29470;53.550;9.926;2022-08-06T02:53:32;5.22;;;2.08;;
43823;SDS011;29470;53.550;9.926;2022-08-06T02:59:01;7.45;;;2.50;;
43823;SDS011;29470;53.550;9.926;2022-08-06T03:04:08;6.03;;;2.25;;
43823;SDS011;29470;53.550;9.926;2022-08-06T03:09:11;3.58;;;2.20;;
43823;SDS011;29470;53.550;9.926;2022-08-06T03:14:17;5.28;;;2.35;;
43823;SDS011;29470;53.550;9.926;2022-08-06T03:19:44;4.47;;;2.60;;
43823;SDS011;29470;53.550;9.926;2022-08-06T03:24:58;3.60;;;2.33;;
43823;SDS011;29470;53.550;9.926;2022-08-06T03:30:04;6.07;;;2.90;;
43823;SDS011;29470;53.550;9.926;2022-08-06T03:35:10;4.43;;;3.00;;
43823;SDS011;29470;53.550;9.926;2022-08-06T03:40:34;4.78;;;3.05;;
43823;SDS011;29470;53.550;9.926;2022-08-06T03:45:43;8.65;;;3.50;;
43823;SDS011;29470;53.550;9.926;2022-08-06T03:50:59;4.43;;;2.90;;
43823;SDS011;29470;53.550;9.926;2022-08-06T03:56:11;5.07;;;2.92;;
43823;SDS011;29470;53.550;9.926;2022-08-06T04:01:29;3.90;;;2.78;;
43823;SDS011;29470;53.550;9.926;2022-08-06T04:06:36;5.55;;;3.20;;
43823;SDS011;29470;53.550;9.926;2022-08-06T04:11:43;3.90;;;2.58;;
43823;SDS011;29470;53.550;9.926;2022-08-06T04:17:08;6.90;;;2.97;;
43823;SDS011;29470;53.550;9.926;2022-08-06T04:22:13;5.60;;;2.60;;
43823;SDS011;29470;53.550;9.926;2022-08-06T04:27:37;5.68;;;2.90;;
43823;SDS011;29470;53.550;9.926;2022-08-06T04:32:54;5.20;;;2.90;;
43823;SDS011;29470;53.550;9.926;2022-08-06T04:38:03;5.22;;;3.10;;
43823;SDS011;29470;53.550;9.926;2022-08-06T04:43:07;4.47;;;2.55;;
43823;SDS011;29470;53.550;9.926;2022-08-06T04:48:12;4.53;;;2.67;;
43823;SDS011;29470;53.550;9.926;2022-08-06T04:53:22;5.15;;;2.55;;
43823;SDS011;29470;53.550;9.926;2022-08-06T04:58:45;4.70;;;2.90;;
43823;SDS011;29470;53.550;9.926;2022-08-06T05:03:49;3.92;;;2.63;;
43823;SDS011;29470;53.550;9.926;2022-08-06T05:09:10;6.03;;;2.35;;
43823;SDS011;29470;53.550;9.926;2022-08-06T05:14:27;4.13;;;2.28;;
43823;SDS011;29470;53.550;9.926;2022-08-06T05:19:33;3.53;;;2.00;;
43823;SDS011;29470;53.550;9.926;2022-08-06T05:24:40;6.85;;;2.30;;
43823;SDS011;29470;53.550;9.926;2022-08-06T05:30:03;4.80;;;2.00;;
43823;SDS011;29470;53.550;9.926;2022-08-06T05:35:08;4.72;;;2.55;;
43823;SDS011;29470;53.550;9.926;2022-08-06T05:40:19;3.22;;;1.70;;
43823;SDS011;29470;53.550;9.926;2022-08-06T05:45:35;4.25;;;1.63;;
43823;SDS011;29470;53.550;9.926;2022-08-06T05:50:43;2.97;;;1.48;;
43823;SDS011;29470;53.550;9.926;2022-08-06T05:55:54;3.38;;;1.40;;
43823;SDS011;29470;53.550;9.926;2022-08-06T06:01:00;5.47;;;1.52;;
43823;SDS011;29470;53.550;9.926;2022-08-06T06:06:14;2.42;;;1.30;;
43823;SDS011;29470;53.550;9.926;2022-08-06T06:11:20;2.20;;;1.35;;
43823;SDS011;29470;53.550;9.926;2022-08-06T06:16:46;2.80;;;1.70;;
43823;SDS011;29470;53.550;9.926;2022-08-06T06:22:02;3.75;;;1.35;;
43823;SDS011;29470;53.550;9.926;2022-08-06T06:27:18;3.78;;;1.75;;
43823;SDS011;29470;53.550;9.926;2022-08-06T06:32:46;2.85;;;1.50;;
43823;SDS011;29470;53.550;9.926;2022-08-06T06:37:55;3.47;;;1.52;;
43823;SDS011;29470;53.550;9.926;2022-08-06T06:43:08;2.58;;;1.40;;
43823;SDS011;29470;53.550;9.926;2022-08-06T06:48:16;3.97;;;1.00;;
43823;SDS011;29470;53.550;9.926;2022-08-06T06:53:22;1.63;;;0.70;;
43823;SDS011;29470;53.550;9.926;2022-08-06T06:58:55;2.28;;;0.70;;
43823;SDS011;29470;53.550;9.926;2022-08-06T07:04:02;1.60;;;0.63;;
43823;SDS011;29470;53.550;9.926;2022-08-06T07:09:13;1.80;;;0.90;;
43823;SDS011;29470;53.550;9.926;2022-08-06T07:14:40;1.08;;;0.60;;
43823;SDS011;29470;53.550;9.926;2022-08-06T07:19:44;3.72;;;0.90;;
43823;SDS011;29470;53.550;9.926;2022-08-06T07:24:56;2.00;;;0.90;;
43823;SDS011;29470;53.550;9.926;2022-08-06T07:30:09;2.85;;;0.90;;
43823;SDS011;29470;53.550;9.926;2022-08-06T07:35:15;3.88;;;0.75;;
43823;SDS011;29470;53.550;9.926;2022-08-06T07:40:22;1.65;;;0.82;;
43823;SDS011;29470;53.550;9.926;2022-08-06T07:45:31;1.52;;;0.70;;
43823;SDS011;29470;53.550;9.926;2022-08-06T07:50:54;2.95;;;0.80;;
43823;SDS011;29470;53.550;9.926;2022-08-06T07:55:59;3.45;;;0.90;;
43823;SDS011;29470;53.550;9.926;2022-08-06T08:01:04;1.98;;;0.60;;
43823;SDS011;29470;53.550;9.926;2022-08-06T08:06:09;2.30;;;0.52;;
43823;SDS011;29470;53.550;9.926;2022-08-06T08:11:23;2.42;;;0.80;;
43823;SDS011;29470;53.550;9.926;2022-08-06T08:16:49;3.78;;;0.70;;
43823;SDS011;29470;53.550;9.926;2022-08-06T08:21:53;1.50;;;0.38;;
43823;SDS011;29470;53.550;9.926;2022-08-06T08:26:57;2.38;;;0.80;;
43823;SDS011;29470;53.550;9.926;2022-08-06T08:32:18;1.75;;;0.60;;
43823;SDS011;29470;53.550;9.926;2022-08-06T08:37:47;2.72;;;1.00;;
43823;SDS011;29470;53.550;9.926;2022-08-06T08:42:51;1.77;;;0.50;;
43823;SDS011;29470;53.550;9.926;2022-08-06T08:48:00;2.65;;;0.50;;
43823;SDS011;29470;53.550;9.926;2022-08-06T08:53:07;2.15;;;0.80;;
43823;SDS011;29470;53.550;9.926;2022-08-06T08:58:12;1.30;;;0.60;;
43823;SDS011;29470;53.550;9.926;2022-08-06T09:03:39;2.13;;;0.60;;
43823;SDS011;29470;53.550;9.926;2022-08-06T09:08:50;3.05;;;0.82;;
43823;SDS011;29470;53.550;9.926;2022-08-06T09:14:04;0.70;;;0.50;;
43823;SDS011;29470;53.550;9.926;2022-08-06T09:19:11;1.77;;;0.70;;
43823;SDS011;29470;53.550;9.926;2022-08-06T09:24:16;3.27;;;1.07;;
43823;SDS011;29470;53.550;9.926;2022-08-06T09:29:36;3.97;;;1.77;;
43823;SDS011;29470;53.550;9.926;2022-08-06T09:35:16;3.13;;;0.80;;
43823;SDS011;29470;53.550;9.926;2022-08-06T09:40:40;2.10;;;0.70;;
43823;SDS011;29470;53.550;9.926;2022-08-06T09:45:44;2.85;;;0.80;;
43823;SDS011;29470;53.550;9.926;2022-08-06T09:50:49;2.38;;;0.70;;
43823;SDS011;29470;53.550;9.926;2022-08-06T09:55:53;1.73;;;0.80;;
43823;SDS011;29470;53.550;9.926;2022-08-06T10:01:10;3.70;;;0.68;;
43823;SDS011;29470;53.550;9.926;2022-08-06T10:06:24;1.88;;;0.63;;
43823;SDS011;29470;53.550;9.926;2022-08-06T10:11:31;4.88;;;1.05;;
43823;SDS011;29470;53.550;9.926;2022-08-06T10:17:02;3.33;;;0.70;;
43823;SDS011;29470;53.550;9.926;2022-08-06T10:22:10;1.92;;;0.73;;
43823;SDS011;29470;53.550;9.926;2022-08-06T10:27:16;3.95;;;1.08;;
43823;SDS011;29470;53.550;9.926;2022-08-06T10:32:23;3.33;;;1.00;;
43823;SDS011;29470;53.550;9.926;2022-08-06T10:37:37;3.38;;;0.95;;
43823;SDS011;29470;53.550;9.926;2022-08-06T10:42:50;4.22;;;1.38;;
43823;SDS011;29470;53.550;9.926;2022-08-06T10:47:55;3.03;;;1.20;;
43823;SDS011;29470;53.550;9.926;2022-08-06T10:53:20;3.60;;;1.30;;
43823;SDS011;29470;53.550;9.926;2022-08-06T10:58:44;5.32;;;2.17;;
43823;SDS011;29470;53.550;9.926;2022-08-06T11:09:18;3.55;;;1.92;;
43823;SDS011;29470;53.550;9.926;2022-08-06T11:14:52;4.65;;;1.90;;
43823;SDS011;29470;53.550;9.926;2022-08-06T11:19:55;3.67;;;1.90;;
43823;SDS011;29470;53.550;9.926;2022-08-06T11:25:15;4.47;;;2.08;;
43823;SDS011;29470;53.550;9.926;2022-08-06T11:30:35;5.70;;;2.50;;
43823;SDS011;29470;53.550;9.926;2022-08-06T11:35:42;3.72;;;2.10;;
43823;SDS011;29470;53.550;9.926;2022-08-06T11:40:59;5.78;;;2.58;;
43823;SDS011;29470;53.550;9.926;2022-08-06T11:46:19;5.22;;;2.60;;
43823;SDS011;29470;53.550;9.926;2022-08-06T11:51:37;5.10;;;2.60;;
43823;SDS011;29470;53.550;9.926;2022-08-06T12:02:09;4.97;;;2.03;;
43823;SDS011;29470;53.550;9.926;2022-08-06T12:07:18;4.18;;;2.22;;
43823;SDS011;29470;53.550;9.926;2022-08-06T12:12:34;3.70;;;2.20;;
43823;SDS011;29470;53.550;9.926;2022-08-06T12:17:40;5.30;;;2.65;;
43823;SDS011;29470;53.550;9.926;2022-08-06T12:23:05;3.67;;;2.50;;
43823;SDS011;29470;53.550;9.926;2022-08-06T12:28:13;4.25;;;2.40;;
43823;SDS011;29470;53.550;9.926;2022-08-06T12:33:20;3.53;;;2.60;;
43823;SDS011;29470;53.550;9.926;2022-08-06T12:38:25;4.10;;;2.47;;
43823;SDS011;29470;53.550;9.926;2022-08-06T12:43:31;4.55;;;2.50;;
43823;SDS011;29470;53.550;9.926;2022-08-06T12:48:49;5.00;;;2.78;;
43823;SDS011;29470;53.550;9.926;2022-08-06T12:53:54;4.43;;;2.60;;
43823;SDS011;29470;53.550;9.926;2022-08-06T12:59:00;3.65;;;2.53;;
43823;SDS011;29470;53.550;9.926;2022-08-06T13:04:18;3.33;;;2.53;;
43823;SDS011;29470;53.550;9.926;2022-08-06T13:09:32;4.03;;;2.80;;
43823;SDS011;29470;53.550;9.926;2022-08-06T13:14:47;3.20;;;2.22;;
43823;SDS011;29470;53.550;9.926;2022-08-06T13:19:53;3.75;;;2.42;;
43823;SDS011;29470;53.550;9.926;2022-08-06T13:25:11;4.33;;;2.53;;
43823;SDS011;29470;53.550;9.926;2022-08-06T13:30:37;3.47;;;2.75;;
43823;SDS011;29470;53.550;9.926;2022-08-06T13:35:50;5.05;;;2.90;;
43823;SDS011;29470;53.550;9.926;2022-08-06T13:40:59;4.05;;;2.92;;
43823;SDS011;29470;53.550;9.926;2022-08-06T13:46:09;4.25;;;2.78;;
43823;SDS011;29470;53.550;9.926;2022-08-06T13:51:19;3.78;;;2.97;;
43823;SDS011;29470;53.550;9.926;2022-08-06T13:56:29;4.90;;;3.25;;
43823;SDS011;29470;53.550;9.926;2022-08-06T14:01:34;6.05;;;4.05;;
43823;SDS011;29470;53.550;9.926;2022-08-06T14:06:47;6.20;;;3.40;;
43823;SDS011;29470;53.550;9.926;2022-08-06T14:11:53;5.60;;;3.75;;
43823;SDS011;29470;53.550;9.926;2022-08-06T14:16:58;5.93;;;4.10;;
43823;SDS011;29470;53.550;9.926;2022-08-06T14:22:04;5.20;;;3.80;;
43823;SDS011;29470;53.550;9.926;2022-08-06T14:27:07;7.43;;;4.57;;
43823;SDS011;29470;53.550;9.926;2022-08-06T14:32:16;6.57;;;4.75;;
43823;SDS011;29470;53.550;9.926;2022-08-06T14:37:28;6.68;;;4.55;;
43823;SDS011;29470;53.550;9.926;2022-08-06T14:42:51;6.22;;;4.13;;
43823;SDS011;29470;53.550;9.926;2022-08-06T14:48:11;6.18;;;4.32;;
43823;SDS011;29470;53.550;9.926;2022-08-06T14:53:17;4.57;;;3.30;;
43823;SDS011;29470;53.550;9.926;2022-08-06T14:58:22;5.43;;;3.83;;
43823;SDS011;29470;53.550;9.926;2022-08-06T15:03:31;5.00;;;4.07;;
43823;SDS011;29470;53.550;9.926;2022-08-06T15:08:35;5.68;;;3.70;;
43823;SDS011;29470;53.550;9.926;2022-08-06T15:13:49;4.00;;;3.28;;
43823;SDS011;29470;53.550;9.926;2022-08-06T15:18:54;4.53;;;3.30;;
43823;SDS011;29470;53.550;9.926;2022-08-06T15:24:18;4.80;;;3.47;;
43823;SDS011;29470;53.550;9.926;2022-08-06T15:29:21;7.15;;;4.13;;
43823;SDS011;29470;53.550;9.926;2022-08-06T15:34:25;5.97;;;4.10;;
43823;SDS011;29470;53.550;9.926;2022-08-06T15:39:30;7.15;;;4.07;;
43823;SDS011;29470;53.550;9.926;2022-08-06T15:44:54;5.90;;;3.97;;
43823;SDS011;29470;53.550;9.926;2022-08-06T15:49:57;7.55;;;3.35;;
43823;SDS011;29470;53.550;9.926;2022-08-06T15:55:07;4.95;;;3.50;;
43823;SDS011;29470;53.550;9.926;2022-08-06T16:00:17;6.35;;;3.90;;
43823;SDS011;29470;53.550;9.926;2022-08-06T16:05:23;5.28;;;3.47;;
43823;SDS011;29470;53.550;9.926;2022-08-06T16:10:48;5.85;;;3.80;;
43823;SDS011;29470;53.550;9.926;2022-08-06T16:15:51;8.30;;;3.80;;
43823;SDS011;29470;53.550;9.926;2022-08-06T16:20:55;4.82;;;3.50;;
43823;SDS011;29470;53.550;9.926;2022-08-06T16:26:05;5.93;;;3.72;;
43823;SDS011;29470;53.550;9.926;2022-08-06T16:31:16;6.07;;;3.70;;
43823;SDS011;29470;53.550;9.926;2022-08-06T16:36:19;5.50;;;4.10;;
43823;SDS011;29470;53.550;9.926;2022-08-06T16:41:34;6.57;;;4.57;;
43823;SDS011;29470;53.550;9.926;2022-08-06T16:46:58;5.57;;;3.80;;
43823;SDS011;29470;53.550;9.926;2022-08-06T16:52:06;6.30;;;4.15;;
43823;SDS011;29470;53.550;9.926;2022-08-06T16:57:30;7.07;;;4.22;;
43823;SDS011;29470;53.550;9.926;2022-08-06T17:02:53;7.78;;;4.50;;
43823;SDS011;29470;53.550;9.926;2022-08-06T17:07:56;7.05;;;4.50;;
43823;SDS011;29470;53.550;9.926;2022-08-06T17:13:06;6.30;;;4.30;;
43823;SDS011;29470;53.550;9.926;2022-08-06T17:18:09;5.57;;;4.55;;
43823;SDS011;29470;53.550;9.926;2022-08-06T17:23:29;7.72;;;4.78;;
43823;SDS011;29470;53.550;9.926;2022-08-06T17:28:50;6.25;;;4.68;;
43823;SDS011;29470;53.550;9.926;2022-08-06T17:33:53;6.68;;;4.50;;
43823;SDS011;29470;53.550;9.926;2022-08-06T17:38:58;10.25;;;5.28;;
43823;SDS011;29470;53.550;9.926;2022-08-06T17:44:13;7.20;;;5.60;;
43823;SDS011;29470;53.550;9.926;2022-08-06T17:49:18;8.00;;;5.35;;
43823;SDS011;29470;53.550;9.926;2022-08-06T17:54:21;8.38;;;5.07;;
43823;SDS011;29470;53.550;9.926;2022-08-06T17:59:45;9.00;;;5.95;;
43823;SDS011;29470;53.550;9.926;2022-08-06T18:04:51;8.73;;;5.72;;
43823;SDS011;29470;53.550;9.926;2022-08-06T18:09:56;7.55;;;5.40;;
43823;SDS011;29470;53.550;9.926;2022-08-06T18:15:19;7.05;;;5.43;;
43823;SDS011;29470;53.550;9.926;2022-08-06T18:20:40;7.38;;;5.10;;
43823;SDS011;29470;53.550;9.926;2022-08-06T18:25:45;8.23;;;5.18;;
43823;SDS011;29470;53.550;9.926;2022-08-06T18:30:59;8.95;;;5.63;;
43823;SDS011;29470;53.550;9.926;2022-08-06T18:36:05;9.15;;;5.03;;
43823;SDS011;29470;53.550;9.926;2022-08-06T18:41:11;7.15;;;4.97;;
43823;SDS011;29470;53.550;9.926;2022-08-06T18:46:18;8.27;;;5.13;;
43823;SDS011;29470;53.550;9.926;2022-08-06T18:51:41;9.40;;;5.22;;
43823;SDS011;29470;53.550;9.926;2022-08-06T18:56:47;9.60;;;5.63;;
43823;SDS011;29470;53.550;9.926;2022-08-06T19:01:51;9.38;;;5.50;;
43823;SDS011;29470;53.550;9.926;2022-08-06T19:06:54;8.88;;;5.00;;
43823;SDS011;29470;53.550;9.926;2022-08-06T19:12:03;7.55;;;4.80;;
43823;SDS011;29470;53.550;9.926;2022-08-06T19:17:15;8.48;;;4.82;;
43823;SDS011;29470;53.550;9.926;2022-08-06T19:22:39;7.70;;;4.85;;
43823;SDS011;29470;53.550;9.926;2022-08-06T19:27:45;10.93;;;5.40;;
43823;SDS011;29470;53.550;9.926;2022-08-06T19:33:11;10.63;;;5.72;;
43823;SDS011;29470;53.550;9.926;2022-08-06T19:38:16;9.85;;;5.30;;
43823;SDS011;29470;53.550;9.926;2022-08-06T19:43:20;9.70;;;5.78;;
43823;SDS011;29470;53.550;9.926;2022-08-06T19:48:45;9.95;;;6.70;;
43823;SDS011;29470;53.550;9.926;2022-08-06T19:53:48;8.50;;;5.47;;
43823;SDS011;29470;53.550;9.926;2022-08-06T19:58:54;10.27;;;5.43;;
43823;SDS011;29470;53.550;9.926;2022-08-06T20:04:19;11.02;;;5.35;;
43823;SDS011;29470;53.550;9.926;2022-08-06T20:09:22;7.65;;;5.20;;
43823;SDS011;29470;53.550;9.926;2022-08-06T20:14:49;9.50;;;5.45;;
43823;SDS011;29470;53.550;9.926;2022-08-06T20:19:54;7.95;;;4.93;;
43823;SDS011;29470;53.550;9.926;2022-08-06T20:25:09;9.60;;;5.50;;
43823;SDS011;29470;53.550;9.926;2022-08-06T20:30:19;7.10;;;5.00;;
43823;SDS011;29470;53.550;9.926;2022-08-06T20:35:25;8.18;;;4.93;;
43823;SDS011;29470;53.550;9.926;2022-08-06T20:40:32;8.95;;;4.82;;
43823;SDS011;29470;53.550;9.926;2022-08-06T20:45:55;7.90;;;4.93;;
43823;SDS011;29470;53.550;9.926;2022-08-06T20:51:01;8.95;;;5.03;;
43823;SDS011;29470;53.550;9.926;2022-08-06T20:56:04;8.68;;;4.90;;
43823;SDS011;29470;53.550;9.926;2022-08-06T21:01:08;9.07;;;5.40;;
43823;SDS011;29470;53.550;9.926;2022-08-06T21:06:14;10.40;;;5.15;;
43823;SDS011;29470;53.550;9.926;2022-08-06T21:11:23;10.07;;;4.95;;
43823;SDS011;29470;53.550;9.926;2022-08-06T21:16:30;8.07;;;4.90;;
43823;SDS011;29470;53.550;9.926;2022-08-06T21:21:37;9.00;;;5.50;;
43823;SDS011;29470;53.550;9.926;2022-08-06T21:26:42;9.10;;;4.43;;
43823;SDS011;29470;53.550;9.926;2022-08-06T21:31:52;8.57;;;5.10;;
43823;SDS011;29470;53.550;9.926;2022-08-06T21:37:03;12.05;;;6.00;;
43823;SDS011;29470;53.550;9.926;2022-08-06T21:42:26;11.23;;;5.67;;
43823;SDS011;29470;53.550;9.926;2022-08-06T21:47:29;8.85;;;4.90;;
43823;SDS011;29470;53.550;9.926;2022-08-06T21:52:49;10.05;;;5.22;;
43823;SDS011;29470;53.550;9.926;2022-08-06T21:57:52;10.30;;;5.32;;
43823;SDS011;29470;53.550;9.926;2022-08-06T22:03:03;11.00;;;5.35;;
43823;SDS011;29470;53.550;9.926;2022-08-06T22:08:29;11.00;;;5.38;;
43823;SDS011;29470;53.550;9.926;2022-08-06T22:13:35;11.98;;;5.95;;
43823;SDS011;29470;53.550;9.926;2022-08-06T22:18:51;7.63;;;4.60;;
43823;SDS011;29470;53.550;9.926;2022-08-06T22:23:55;9.02;;;4.57;;
43823;SDS011;29470;53.550;9.926;2022-08-06T22:28:59;9.73;;;5.20;;
43823;SDS011;29470;53.550;9.926;2022-08-06T22:34:08;10.73;;;5.28;;
43823;SDS011;29470;53.550;9.926;2022-08-06T22:39:12;8.88;;;5.15;;
43823;SDS011;29470;53.550;9.926;2022-08-06T22:44:15;8.77;;;5.18;;
43823;SDS011;29470;53.550;9.926;2022-08-06T22:49:36;8.30;;;5.35;;
43823;SDS011;29470;53.550;9.926;2022-08-06T22:55:01;12.60;;;5.45;;
43823;SDS011;29470;53.550;9.926;2022-08-06T23:00:05;8.68;;;5.20;;
43823;SDS011;29470;53.550;9.926;2022-08-06T23:05:19;8.43;;;5.40;;
43823;SDS011;29470;53.550;9.926;2022-08-06T23:10:23;12.00;;;5.78;;
43823;SDS011;29470;53.550;9.926;2022-08-06T23:15:26;12.95;;;6.13;;
43823;SDS011;29470;53.550;9.926;2022-08-06T23:20:41;11.70;;;5.50;;
43823;SDS011;29470;53.550;9.926;2022-08-06T23:25:45;10.50;;;6.25;;
43823;SDS011;29470;53.550;9.926;2022-08-06T23:31:03;11.52;;;6.07;;
43823;SDS011;29470;53.550;9.926;2022-08-06T23:36:06;10.23;;;5.72;;
43823;SDS011;29470;53.550;9.926;2022-08-06T23:41:16;12.60;;;7.10;;
43823;SDS011;29470;53.550;9.926;2022-08-06T23:46:24;11.57;;;6.60;;
43823;SDS011;29470;53.550;9.926;2022-08-06T23:51:29;14.48;;;7.68;;
43823;SDS011;29470;53.550;9.926;2022-08-06T23:56:53;13.15;;;7.18;;
